ENNO

Notodden Airport

Norway
METAR ENNO 200650Z 09005KT 9000 -SN SCT018 OVC024 M02/M06 Q1028
Observed Flight Rules
Feb-20 @ 06:50 UTC (45 minutes ago) Marginal Visual Flight Rules
Wind Visibility Clouds Conditions
90° at 5 knots 8,996 meters
  • Scattered at 1,800' AGL
  • Overcast at 2,400' AGL
  • Light Snow
Temperatures Readings
Current -2°C / 28°F
Dewpoint -6°C / 21°F
Humidity 74%
Altimeter 30.35" Hg
Pressure 1028 hPa
Elevation 19
METAR ENNO 200650Z 09005KT 9000 -SN SCT018 OVC024 M02/M06 Q1028
Observed Flight Rules
Feb-20 @ 06:50 UTC
(45 minutes ago)
MVFR
Wind Visibility
90° at 5 knots 8,996 meters
Clouds
  • Scattered at 1,800' AGL
  • Overcast at 2,400' AGL
Conditions
  • Light Snow
Temperature Dewpoint
-2°C / 28°F -6°C / 21°F
Humidity Altimeter Pressure
74% 30.35" Hg 1028 hPa